sensor_id;sensor_type;location;lat;lon;timestamp;pressure;altitude;pressure_sealevel;temperature;humidity
57412;BME280;43247;52.828;-8.980;2023-11-21T00:00:54;102757.34;;;8.01;94.20
57412;BME280;43247;52.828;-8.980;2023-11-21T00:01:54;102759.92;;;8.03;94.01
57412;BME280;43247;52.828;-8.980;2023-11-21T00:02:54;102762.07;;;8.05;93.86
57412;BME280;43247;52.828;-8.980;2023-11-21T00:03:54;102764.45;;;8.04;93.84
57412;BME280;43247;52.828;-8.980;2023-11-21T00:04:55;102769.11;;;8.03;93.98
57412;BME280;43247;52.828;-8.980;2023-11-21T00:05:55;102773.65;;;8.02;93.92
57412;BME280;43247;52.828;-8.980;2023-11-21T00:06:55;102775.90;;;8.00;94.08
57412;BME280;43247;52.828;-8.980;2023-11-21T00:07:55;102778.24;;;8.00;94.10
57412;BME280;43247;52.828;-8.980;2023-11-21T00:08:55;102777.67;;;7.98;94.14
57412;BME280;43247;52.828;-8.980;2023-11-21T00:09:56;102777.51;;;7.98;94.13
57412;BME280;43247;52.828;-8.980;2023-11-21T00:10:56;102779.40;;;7.96;94.13
57412;BME280;43247;52.828;-8.980;2023-11-21T00:11:56;102780.74;;;7.95;94.15
57412;BME280;43247;52.828;-8.980;2023-11-21T00:12:56;102780.93;;;7.94;94.26
57412;BME280;43247;52.828;-8.980;2023-11-21T00:13:56;102787.37;;;7.95;94.21
57412;BME280;43247;52.828;-8.980;2023-11-21T00:14:57;102790.86;;;7.94;94.33
57412;BME280;43247;52.828;-8.980;2023-11-21T00:15:57;102788.50;;;7.94;94.22
57412;BME280;43247;52.828;-8.980;2023-11-21T00:16:59;102791.11;;;7.94;94.21
57412;BME280;43247;52.828;-8.980;2023-11-21T00:17:57;102793.03;;;7.93;94.21
57412;BME280;43247;52.828;-8.980;2023-11-21T00:18:58;102792.25;;;7.94;94.25
57412;BME280;43247;52.828;-8.980;2023-11-21T00:19:58;102794.89;;;7.93;94.22
57412;BME280;43247;52.828;-8.980;2023-11-21T00:20:58;102793.98;;;7.92;94.16
57412;BME280;43247;52.828;-8.980;2023-11-21T00:21:58;102795.24;;;7.92;94.15
57412;BME280;43247;52.828;-8.980;2023-11-21T00:22:58;102798.29;;;7.92;94.17
57412;BME280;43247;52.828;-8.980;2023-11-21T00:23:58;102800.40;;;7.93;94.22
57412;BME280;43247;52.828;-8.980;2023-11-21T00:24:59;102798.82;;;7.92;94.23
57412;BME280;43247;52.828;-8.980;2023-11-21T00:25:59;102799.42;;;7.91;94.27
57412;BME280;43247;52.828;-8.980;2023-11-21T00:26:59;102798.97;;;7.89;94.23
57412;BME280;43247;52.828;-8.980;2023-11-21T00:27:59;102803.46;;;7.88;94.24
57412;BME280;43247;52.828;-8.980;2023-11-21T00:28:59;102799.29;;;7.88;94.23
57412;BME280;43247;52.828;-8.980;2023-11-21T00:29:59;102798.65;;;7.88;94.25
57412;BME280;43247;52.828;-8.980;2023-11-21T00:31:00;102796.14;;;7.88;94.25
57412;BME280;43247;52.828;-8.980;2023-11-21T00:32:00;102795.69;;;7.87;94.30
57412;BME280;43247;52.828;-8.980;2023-11-21T00:33:00;102795.10;;;7.87;94.22
57412;BME280;43247;52.828;-8.980;2023-11-21T00:34:00;102791.79;;;7.87;94.19
57412;BME280;43247;52.828;-8.980;2023-11-21T00:35:00;102794.73;;;7.86;94.19
57412;BME280;43247;52.828;-8.980;2023-11-21T00:36:01;102793.62;;;7.85;94.19
57412;BME280;43247;52.828;-8.980;2023-11-21T00:37:01;102799.88;;;7.87;94.12
57412;BME280;43247;52.828;-8.980;2023-11-21T00:38:01;102801.07;;;7.86;94.13
57412;BME280;43247;52.828;-8.980;2023-11-21T00:39:01;102802.22;;;7.84;94.16
57412;BME280;43247;52.828;-8.980;2023-11-21T00:40:05;102804.63;;;7.82;94.30
57412;BME280;43247;52.828;-8.980;2023-11-21T00:41:05;102805.62;;;7.83;94.22
57412;BME280;43247;52.828;-8.980;2023-11-21T00:42:06;102812.38;;;7.83;94.21
57412;BME280;43247;52.828;-8.980;2023-11-21T00:43:05;102809.82;;;7.83;94.15
57412;BME280;43247;52.828;-8.980;2023-11-21T00:44:06;102810.42;;;7.82;94.17
57412;BME280;43247;52.828;-8.980;2023-11-21T00:45:07;102815.54;;;7.79;94.20
57412;BME280;43247;52.828;-8.980;2023-11-21T00:46:06;102816.68;;;7.81;94.20
57412;BME280;43247;52.828;-8.980;2023-11-21T00:47:06;102815.59;;;7.81;94.19
57412;BME280;43247;52.828;-8.980;2023-11-21T00:48:06;102814.41;;;7.81;94.26
57412;BME280;43247;52.828;-8.980;2023-11-21T00:49:06;102812.29;;;7.79;94.31
57412;BME280;43247;52.828;-8.980;2023-11-21T00:50:07;102813.69;;;7.80;94.19
57412;BME280;43247;52.828;-8.980;2023-11-21T00:51:07;102818.46;;;7.78;94.31
57412;BME280;43247;52.828;-8.980;2023-11-21T00:52:07;102820.55;;;7.80;94.24
57412;BME280;43247;52.828;-8.980;2023-11-21T00:53:07;102816.73;;;7.78;94.29
57412;BME280;43247;52.828;-8.980;2023-11-21T00:54:07;102823.18;;;7.78;94.24
57412;BME280;43247;52.828;-8.980;2023-11-21T00:55:08;102824.25;;;7.77;94.28
57412;BME280;43247;52.828;-8.980;2023-11-21T00:56:08;102825.80;;;7.79;94.19
57412;BME280;43247;52.828;-8.980;2023-11-21T00:57:08;102827.83;;;7.80;94.17
57412;BME280;43247;52.828;-8.980;2023-11-21T00:58:08;102827.03;;;7.77;94.18
57412;BME280;43247;52.828;-8.980;2023-11-21T00:59:08;102824.28;;;7.75;94.25
57412;BME280;43247;52.828;-8.980;2023-11-21T01:00:09;102821.59;;;7.75;94.30
57412;BME280;43247;52.828;-8.980;2023-11-21T01:01:08;102822.02;;;7.78;94.18
57412;BME280;43247;52.828;-8.980;2023-11-21T01:02:08;102822.74;;;7.76;94.23
57412;BME280;43247;52.828;-8.980;2023-11-21T01:03:09;102823.68;;;7.76;94.16
57412;BME280;43247;52.828;-8.980;2023-11-21T01:04:09;102822.91;;;7.76;94.15
57412;BME280;43247;52.828;-8.980;2023-11-21T01:05:09;102820.40;;;7.75;94.11
57412;BME280;43247;52.828;-8.980;2023-11-21T01:06:09;102816.73;;;7.75;94.13
57412;BME280;43247;52.828;-8.980;2023-11-21T01:07:09;102814.39;;;7.75;94.06
57412;BME280;43247;52.828;-8.980;2023-11-21T01:08:10;102814.01;;;7.74;94.04
57412;BME280;43247;52.828;-8.980;2023-11-21T01:09:10;102812.33;;;7.73;94.10
57412;BME280;43247;52.828;-8.980;2023-11-21T01:10:10;102808.87;;;7.73;94.08
57412;BME280;43247;52.828;-8.980;2023-11-21T01:11:10;102808.80;;;7.72;94.08
57412;BME280;43247;52.828;-8.980;2023-11-21T01:12:10;102809.08;;;7.73;94.04
57412;BME280;43247;52.828;-8.980;2023-11-21T01:13:10;102807.65;;;7.72;94.05
57412;BME280;43247;52.828;-8.980;2023-11-21T01:14:11;102806.41;;;7.72;94.09
57412;BME280;43247;52.828;-8.980;2023-11-21T01:15:11;102806.37;;;7.72;94.07
57412;BME280;43247;52.828;-8.980;2023-11-21T01:16:11;102806.05;;;7.71;94.05
57412;BME280;43247;52.828;-8.980;2023-11-21T01:17:11;102805.72;;;7.71;94.07
57412;BME280;43247;52.828;-8.980;2023-11-21T01:18:11;102803.73;;;7.71;94.07
57412;BME280;43247;52.828;-8.980;2023-11-21T01:19:11;102803.44;;;7.70;94.04
57412;BME280;43247;52.828;-8.980;2023-11-21T01:20:12;102805.59;;;7.70;94.11
57412;BME280;43247;52.828;-8.980;2023-11-21T01:21:12;102804.00;;;7.70;94.09
57412;BME280;43247;52.828;-8.980;2023-11-21T01:22:12;102809.05;;;7.70;94.10
57412;BME280;43247;52.828;-8.980;2023-11-21T01:23:12;102810.88;;;7.70;94.02
57412;BME280;43247;52.828;-8.980;2023-11-21T01:24:12;102810.11;;;7.70;93.99
57412;BME280;43247;52.828;-8.980;2023-11-21T01:25:13;102812.01;;;7.69;93.97
57412;BME280;43247;52.828;-8.980;2023-11-21T01:26:13;102811.38;;;7.69;94.00
57412;BME280;43247;52.828;-8.980;2023-11-21T01:27:13;102811.45;;;7.70;93.98
57412;BME280;43247;52.828;-8.980;2023-11-21T01:28:13;102815.35;;;7.68;93.95
57412;BME280;43247;52.828;-8.980;2023-11-21T01:29:13;102815.03;;;7.68;93.96
57412;BME280;43247;52.828;-8.980;2023-11-21T01:30:13;102814.75;;;7.68;93.92
57412;BME280;43247;52.828;-8.980;2023-11-21T01:31:13;102817.00;;;7.67;93.96
57412;BME280;43247;52.828;-8.980;2023-11-21T01:32:14;102818.30;;;7.66;93.97
57412;BME280;43247;52.828;-8.980;2023-11-21T01:33:14;102819.79;;;7.66;93.97
57412;BME280;43247;52.828;-8.980;2023-11-21T01:34:14;102823.07;;;7.66;93.84
57412;BME280;43247;52.828;-8.980;2023-11-21T01:35:14;102821.34;;;7.67;93.84
57412;BME280;43247;52.828;-8.980;2023-11-21T01:36:14;102820.95;;;7.67;93.84
57412;BME280;43247;52.828;-8.980;2023-11-21T01:37:14;102821.76;;;7.65;93.98
57412;BME280;43247;52.828;-8.980;2023-11-21T01:38:15;102824.56;;;7.66;93.96
57412;BME280;43247;52.828;-8.980;2023-11-21T01:39:15;102827.49;;;7.65;93.94
57412;BME280;43247;52.828;-8.980;2023-11-21T01:40:15;102826.58;;;7.66;93.85
57412;BME280;43247;52.828;-8.980;2023-11-21T01:41:15;102827.42;;;7.66;93.87
57412;BME280;43247;52.828;-8.980;2023-11-21T01:42:15;102826.68;;;7.66;93.83
57412;BME280;43247;52.828;-8.980;2023-11-21T01:43:15;102824.87;;;7.66;93.71
57412;BME280;43247;52.828;-8.980;2023-11-21T01:44:16;102826.42;;;7.67;93.69
57412;BME280;43247;52.828;-8.980;2023-11-21T01:45:16;102825.29;;;7.66;93.69
57412;BME280;43247;52.828;-8.980;2023-11-21T01:46:16;102825.95;;;7.66;93.75
57412;BME280;43247;52.828;-8.980;2023-11-21T01:47:17;102823.49;;;7.64;93.80
57412;BME280;43247;52.828;-8.980;2023-11-21T01:48:16;102822.23;;;7.63;93.85
57412;BME280;43247;52.828;-8.980;2023-11-21T01:49:17;102822.16;;;7.64;93.74
57412;BME280;43247;52.828;-8.980;2023-11-21T01:50:17;102820.52;;;7.65;93.70
57412;BME280;43247;52.828;-8.980;2023-11-21T01:51:17;102815.94;;;7.66;93.66
57412;BME280;43247;52.828;-8.980;2023-11-21T01:52:17;102818.14;;;7.66;93.69
57412;BME280;43247;52.828;-8.980;2023-11-21T01:53:17;102817.60;;;7.64;93.71
57412;BME280;43247;52.828;-8.980;2023-11-21T01:54:18;102820.22;;;7.64;93.75
57412;BME280;43247;52.828;-8.980;2023-11-21T01:55:18;102817.25;;;7.65;93.74
57412;BME280;43247;52.828;-8.980;2023-11-21T01:56:18;102815.67;;;7.63;93.83
57412;BME280;43247;52.828;-8.980;2023-11-21T01:57:19;102818.22;;;7.63;93.87
57412;BME280;43247;52.828;-8.980;2023-11-21T01:58:18;102818.10;;;7.62;93.85
57412;BME280;43247;52.828;-8.980;2023-11-21T01:59:20;102819.70;;;7.64;93.74
57412;BME280;43247;52.828;-8.980;2023-11-21T02:00:19;102819.57;;;7.61;93.79
57412;BME280;43247;52.828;-8.980;2023-11-21T02:01:19;102820.35;;;7.62;93.76
57412;BME280;43247;52.828;-8.980;2023-11-21T02:02:19;102819.47;;;7.63;93.71
57412;BME280;43247;52.828;-8.980;2023-11-21T02:03:19;102817.11;;;7.62;93.73
57412;BME280;43247;52.828;-8.980;2023-11-21T02:04:19;102816.13;;;7.61;93.78
57412;BME280;43247;52.828;-8.980;2023-11-21T02:05:20;102818.55;;;7.62;93.74
57412;BME280;43247;52.828;-8.980;2023-11-21T02:06:19;102821.08;;;7.61;93.79
57412;BME280;43247;52.828;-8.980;2023-11-21T02:07:20;102823.82;;;7.61;93.80
57412;BME280;43247;52.828;-8.980;2023-11-21T02:08:20;102822.91;;;7.62;93.82
57412;BME280;43247;52.828;-8.980;2023-11-21T02:09:25;102828.01;;;7.61;93.87
57412;BME280;43247;52.828;-8.980;2023-11-21T02:10:20;102826.99;;;7.60;93.95
57412;BME280;43247;52.828;-8.980;2023-11-21T02:11:20;102827.81;;;7.59;93.95
57412;BME280;43247;52.828;-8.980;2023-11-21T02:12:20;102832.12;;;7.61;93.85
57412;BME280;43247;52.828;-8.980;2023-11-21T02:13:21;102829.80;;;7.60;93.89
57412;BME280;43247;52.828;-8.980;2023-11-21T02:14:21;102836.00;;;7.59;93.88
57412;BME280;43247;52.828;-8.980;2023-11-21T02:15:21;102837.03;;;7.62;93.79
57412;BME280;43247;52.828;-8.980;2023-11-21T02:16:21;102837.35;;;7.61;93.85
57412;BME280;43247;52.828;-8.980;2023-11-21T02:17:21;102840.11;;;7.55;94.14
57412;BME280;43247;52.828;-8.980;2023-11-21T02:18:22;102842.47;;;7.55;94.14
57412;BME280;43247;52.828;-8.980;2023-11-21T02:19:23;102843.94;;;7.55;94.15
57412;BME280;43247;52.828;-8.980;2023-11-21T02:20:23;102844.59;;;7.55;94.04
57412;BME280;43247;52.828;-8.980;2023-11-21T02:21:24;102850.18;;;7.56;93.96
57412;BME280;43247;52.828;-8.980;2023-11-21T02:22:23;102852.43;;;7.56;93.86
57412;BME280;43247;52.828;-8.980;2023-11-21T02:23:23;102852.12;;;7.57;93.83
57412;BME280;43247;52.828;-8.980;2023-11-21T02:24:23;102852.86;;;7.57;93.71
57412;BME280;43247;52.828;-8.980;2023-11-21T02:25:24;102851.58;;;7.59;93.57
57412;BME280;43247;52.828;-8.980;2023-11-21T02:26:24;102849.82;;;7.58;93.56
57412;BME280;43247;52.828;-8.980;2023-11-21T02:27:24;102850.30;;;7.57;93.55
57412;BME280;43247;52.828;-8.980;2023-11-21T02:28:24;102847.10;;;7.59;93.44
57412;BME280;43247;52.828;-8.980;2023-11-21T02:29:24;102846.26;;;7.58;93.44
57412;BME280;43247;52.828;-8.980;2023-11-21T02:30:25;102850.65;;;7.57;93.44
57412;BME280;43247;52.828;-8.980;2023-11-21T02:31:25;102850.77;;;7.58;93.38
57412;BME280;43247;52.828;-8.980;2023-11-21T02:32:26;102852.86;;;7.58;93.37
57412;BME280;43247;52.828;-8.980;2023-11-21T02:33:26;102853.68;;;7.57;93.36
57412;BME280;43247;52.828;-8.980;2023-11-21T02:34:26;102854.33;;;7.56;93.36
57412;BME280;43247;52.828;-8.980;2023-11-21T02:35:27;102855.00;;;7.58;93.30
57412;BME280;43247;52.828;-8.980;2023-11-21T02:36:26;102856.45;;;7.58;93.30
57412;BME280;43247;52.828;-8.980;2023-11-21T02:37:27;102857.12;;;7.58;93.24
57412;BME280;43247;52.828;-8.980;2023-11-21T02:38:27;102859.94;;;7.57;93.23
57412;BME280;43247;52.828;-8.980;2023-11-21T02:39:27;102860.86;;;7.57;93.21
57412;BME280;43247;52.828;-8.980;2023-11-21T02:40:27;102864.21;;;7.55;93.27
57412;BME280;43247;52.828;-8.980;2023-11-21T02:41:27;102867.39;;;7.55;93.31
57412;BME280;43247;52.828;-8.980;2023-11-21T02:42:27;102870.01;;;7.55;93.24
57412;BME280;43247;52.828;-8.980;2023-11-21T02:43:28;102872.10;;;7.56;93.23
57412;BME280;43247;52.828;-8.980;2023-11-21T02:44:28;102870.06;;;7.54;93.29
57412;BME280;43247;52.828;-8.980;2023-11-21T02:45:28;102874.89;;;7.56;93.27
57412;BME280;43247;52.828;-8.980;2023-11-21T02:46:28;102876.81;;;7.56;93.30
57412;BME280;43247;52.828;-8.980;2023-11-21T02:47:28;102879.63;;;7.55;93.29
57412;BME280;43247;52.828;-8.980;2023-11-21T02:48:29;102886.51;;;7.56;93.23
57412;BME280;43247;52.828;-8.980;2023-11-21T02:49:29;102886.78;;;7.55;93.16
57412;BME280;43247;52.828;-8.980;2023-11-21T02:50:29;102889.52;;;7.55;93.15
57412;BME280;43247;52.828;-8.980;2023-11-21T02:51:30;102894.33;;;7.52;93.21
57412;BME280;43247;52.828;-8.980;2023-11-21T02:52:30;102897.26;;;7.53;93.17
57412;BME280;43247;52.828;-8.980;2023-11-21T02:53:30;102900.15;;;7.51;93.42
57412;BME280;43247;52.828;-8.980;2023-11-21T02:54:30;102901.15;;;7.44;93.61
57412;BME280;43247;52.828;-8.980;2023-11-21T02:55:30;102905.35;;;7.44;93.18
57412;BME280;43247;52.828;-8.980;2023-11-21T02:56:30;102906.10;;;7.46;92.77
57412;BME280;43247;52.828;-8.980;2023-11-21T02:57:31;102907.00;;;7.49;92.51
57412;BME280;43247;52.828;-8.980;2023-11-21T02:58:31;102909.91;;;7.53;92.43
57412;BME280;43247;52.828;-8.980;2023-11-21T02:59:31;102909.05;;;7.56;92.28
57412;BME280;43247;52.828;-8.980;2023-11-21T03:00:31;102907.37;;;7.56;92.11
57412;BME280;43247;52.828;-8.980;2023-11-21T03:01:31;102907.60;;;7.57;91.99
57412;BME280;43247;52.828;-8.980;2023-11-21T03:02:31;102908.03;;;7.60;91.63
57412;BME280;43247;52.828;-8.980;2023-11-21T03:03:32;102909.98;;;7.62;91.70
57412;BME280;43247;52.828;-8.980;2023-11-21T03:04:32;102911.30;;;7.57;91.75
57412;BME280;43247;52.828;-8.980;2023-11-21T03:05:33;102911.84;;;7.58;91.72
57412;BME280;43247;52.828;-8.980;2023-11-21T03:06:33;102913.29;;;7.57;91.85
57412;BME280;43247;52.828;-8.980;2023-11-21T03:07:33;102912.25;;;7.59;91.59
57412;BME280;43247;52.828;-8.980;2023-11-21T03:08:33;102910.41;;;7.59;91.73
57412;BME280;43247;52.828;-8.980;2023-11-21T03:09:33;102911.50;;;7.60;91.61
57412;BME280;43247;52.828;-8.980;2023-11-21T03:10:34;102910.39;;;7.60;91.61
57412;BME280;43247;52.828;-8.980;2023-11-21T03:11:34;102915.16;;;7.58;91.67
57412;BME280;43247;52.828;-8.980;2023-11-21T03:12:34;102916.95;;;7.59;91.52
57412;BME280;43247;52.828;-8.980;2023-11-21T03:13:34;102919.52;;;7.59;91.52
57412;BME280;43247;52.828;-8.980;2023-11-21T03:14:34;102924.60;;;7.57;91.52
57412;BME280;43247;52.828;-8.980;2023-11-21T03:15:34;102925.07;;;7.60;91.50
57412;BME280;43247;52.828;-8.980;2023-11-21T03:16:35;102925.78;;;7.57;91.50
57412;BME280;43247;52.828;-8.980;2023-11-21T03:17:35;102928.13;;;7.58;91.44
57412;BME280;43247;52.828;-8.980;2023-11-21T03:18:35;102928.86;;;7.57;91.50
57412;BME280;43247;52.828;-8.980;2023-11-21T03:19:35;102928.61;;;7.57;91.41
57412;BME280;43247;52.828;-8.980;2023-11-21T03:20:35;102928.01;;;7.57;91.32
57412;BME280;43247;52.828;-8.980;2023-11-21T03:21:35;102928.43;;;7.55;91.34
57412;BME280;43247;52.828;-8.980;2023-11-21T03:22:36;102927.15;;;7.57;91.34
57412;BME280;43247;52.828;-8.980;2023-11-21T03:23:36;102926.57;;;7.56;91.20
57412;BME280;43247;52.828;-8.980;2023-11-21T03:24:36;102926.76;;;7.53;91.32
57412;BME280;43247;52.828;-8.980;2023-11-21T03:25:36;102925.63;;;7.51;91.36
57412;BME280;43247;52.828;-8.980;2023-11-21T03:26:36;102930.03;;;7.50;91.39
57412;BME280;43247;52.828;-8.980;2023-11-21T03:27:36;102930.10;;;7.49;91.33
57412;BME280;43247;52.828;-8.980;2023-11-21T03:28:37;102930.09;;;7.48;91.35
57412;BME280;43247;52.828;-8.980;2023-11-21T03:29:37;102931.45;;;7.47;91.29
57412;BME280;43247;52.828;-8.980;2023-11-21T03:30:37;102933.01;;;7.46;91.28
57412;BME280;43247;52.828;-8.980;2023-11-21T03:31:37;102933.97;;;7.46;91.29
57412;BME280;43247;52.828;-8.980;2023-11-21T03:32:37;102934.10;;;7.45;91.26
57412;BME280;43247;52.828;-8.980;2023-11-21T03:33:37;102935.80;;;7.47;91.20
57412;BME280;43247;52.828;-8.980;2023-11-21T03:35:38;102937.98;;;7.42;91.34
57412;BME280;43247;52.828;-8.980;2023-11-21T03:36:38;102935.95;;;7.40;91.30
57412;BME280;43247;52.828;-8.980;2023-11-21T03:37:38;102938.78;;;7.39;91.30
57412;BME280;43247;52.828;-8.980;2023-11-21T03:38:38;102940.30;;;7.38;91.30
57412;BME280;43247;52.828;-8.980;2023-11-21T03:39:38;102940.40;;;7.37;91.28
57412;BME280;43247;52.828;-8.980;2023-11-21T03:40:39;102942.97;;;7.37;91.24
57412;BME280;43247;52.828;-8.980;2023-11-21T03:41:39;102943.36;;;7.36;91.22
57412;BME280;43247;52.828;-8.980;2023-11-21T03:42:39;102944.25;;;7.35;91.24
57412;BME280;43247;52.828;-8.980;2023-11-21T03:43:39;102945.82;;;7.33;91.26
57412;BME280;43247;52.828;-8.980;2023-11-21T03:44:39;102947.63;;;7.32;91.28
57412;BME280;43247;52.828;-8.980;2023-11-21T03:45:39;102948.62;;;7.32;91.11
57412;BME280;43247;52.828;-8.980;2023-11-21T03:46:40;102949.84;;;7.30;91.19
57412;BME280;43247;52.828;-8.980;2023-11-21T03:47:41;102952.25;;;7.30;91.08
57412;BME280;43247;52.828;-8.980;2023-11-21T03:48:40;102952.80;;;7.31;91.02
57412;BME280;43247;52.828;-8.980;2023-11-21T03:49:40;102951.92;;;7.31;90.95
57412;BME280;43247;52.828;-8.980;2023-11-21T03:50:40;102955.34;;;7.29;90.94
57412;BME280;43247;52.828;-8.980;2023-11-21T03:51:40;102955.61;;;7.29;90.97
57412;BME280;43247;52.828;-8.980;2023-11-21T03:52:41;102957.82;;;7.30;90.95
57412;BME280;43247;52.828;-8.980;2023-11-21T03:53:41;102959.77;;;7.30;90.89
57412;BME280;43247;52.828;-8.980;2023-11-21T03:54:41;102957.96;;;7.29;90.80
57412;BME280;43247;52.828;-8.980;2023-11-21T03:55:41;102959.80;;;7.28;90.88
57412;BME280;43247;52.828;-8.980;2023-11-21T03:56:41;102958.49;;;7.28;90.84
57412;BME280;43247;52.828;-8.980;2023-11-21T03:57:42;102957.04;;;7.27;90.82
57412;BME280;43247;52.828;-8.980;2023-11-21T03:58:42;102960.39;;;7.27;90.81
57412;BME280;43247;52.828;-8.980;2023-11-21T03:59:43;102961.57;;;7.26;90.86
57412;BME280;43247;52.828;-8.980;2023-11-21T04:00:42;102959.39;;;7.24;90.86
57412;BME280;43247;52.828;-8.980;2023-11-21T04:01:42;102957.90;;;7.24;90.85
57412;BME280;43247;52.828;-8.980;2023-11-21T04:02:43;102958.75;;;7.26;90.74
57412;BME280;43247;52.828;-8.980;2023-11-21T04:03:43;102957.50;;;7.27;90.72
57412;BME280;43247;52.828;-8.980;2023-11-21T04:04:43;102955.96;;;7.26;90.65
57412;BME280;43247;52.828;-8.980;2023-11-21T04:05:43;102957.23;;;7.24;90.70
57412;BME280;43247;52.828;-8.980;2023-11-21T04:06:43;102956.28;;;7.23;90.74
57412;BME280;43247;52.828;-8.980;2023-11-21T04:07:43;102958.89;;;7.22;90.75
57412;BME280;43247;52.828;-8.980;2023-11-21T04:08:44;102960.99;;;7.13;91.01
57412;BME280;43247;52.828;-8.980;2023-11-21T04:09:44;102961.50;;;7.10;90.56
57412;BME280;43247;52.828;-8.980;2023-11-21T04:10:44;102964.92;;;7.14;90.18
57412;BME280;43247;52.828;-8.980;2023-11-21T04:11:44;102965.32;;;7.12;89.81
57412;BME280;43247;52.828;-8.980;2023-11-21T04:12:44;102965.27;;;7.11;89.79
57412;BME280;43247;52.828;-8.980;2023-11-21T04:13:44;102968.26;;;7.16;89.48
57412;BME280;43247;52.828;-8.980;2023-11-21T04:14:45;102968.48;;;7.16;89.34
57412;BME280;43247;52.828;-8.980;2023-11-21T04:15:45;102970.34;;;7.14;89.42
57412;BME280;43247;52.828;-8.980;2023-11-21T04:16:45;102970.63;;;7.16;89.94
57412;BME280;43247;52.828;-8.980;2023-11-21T04:17:45;102969.40;;;7.15;89.33
57412;BME280;43247;52.828;-8.980;2023-11-21T04:18:45;102969.34;;;7.15;89.53
57412;BME280;43247;52.828;-8.980;2023-11-21T04:19:45;102969.74;;;7.16;89.48
57412;BME280;43247;52.828;-8.980;2023-11-21T04:20:46;102968.76;;;7.15;89.42
57412;BME280;43247;52.828;-8.980;2023-11-21T04:21:46;102969.80;;;7.17;89.51
57412;BME280;43247;52.828;-8.980;2023-11-21T04:22:46;102968.43;;;7.16;89.63
57412;BME280;43247;52.828;-8.980;2023-11-21T04:23:46;102969.76;;;7.16;89.50
57412;BME280;43247;52.828;-8.980;2023-11-21T04:24:46;102968.08;;;7.16;89.54
57412;BME280;43247;52.828;-8.980;2023-11-21T04:25:46;102967.62;;;7.16;89.68
57412;BME280;43247;52.828;-8.980;2023-11-21T04:26:47;102966.52;;;7.18;89.66
57412;BME280;43247;52.828;-8.980;2023-11-21T04:27:47;102963.29;;;7.15;89.69
57412;BME280;43247;52.828;-8.980;2023-11-21T04:28:47;102958.61;;;7.16;89.97
57412;BME280;43247;52.828;-8.980;2023-11-21T04:29:48;102957.77;;;7.14;89.89
57412;BME280;43247;52.828;-8.980;2023-11-21T04:30:48;102958.10;;;7.15;89.87
57412;BME280;43247;52.828;-8.980;2023-11-21T04:31:48;102957.24;;;7.16;90.05
57412;BME280;43247;52.828;-8.980;2023-11-21T04:32:48;102956.25;;;7.16;90.00
57412;BME280;43247;52.828;-8.980;2023-11-21T04:33:48;102959.63;;;7.15;90.01
57412;BME280;43247;52.828;-8.980;2023-11-21T04:34:48;102962.81;;;7.14;90.17
57412;BME280;43247;52.828;-8.980;2023-11-21T04:35:49;102964.19;;;7.15;90.13
57412;BME280;43247;52.828;-8.980;2023-11-21T04:36:49;102965.87;;;7.14;90.08
57412;BME280;43247;52.828;-8.980;2023-11-21T04:37:49;102968.00;;;7.15;90.24
57412;BME280;43247;52.828;-8.980;2023-11-21T04:38:49;102969.36;;;7.15;90.16
57412;BME280;43247;52.828;-8.980;2023-11-21T04:39:49;102972.67;;;7.14;90.21
57412;BME280;43247;52.828;-8.980;2023-11-21T04:40:50;102973.79;;;7.06;90.60
57412;BME280;43247;52.828;-8.980;2023-11-21T04:41:50;102974.33;;;7.05;90.28
57412;BME280;43247;52.828;-8.980;2023-11-21T04:42:50;102974.71;;;7.07;89.98
57412;BME280;43247;52.828;-8.980;2023-11-21T04:43:50;102974.21;;;7.05;89.96
57412;BME280;43247;52.828;-8.980;2023-11-21T04:44:50;102975.37;;;7.12;89.74
57412;BME280;43247;52.828;-8.980;2023-11-21T04:45:50;102979.01;;;7.13;89.77
57412;BME280;43247;52.828;-8.980;2023-11-21T04:46:51;102977.75;;;7.13;89.73
57412;BME280;43247;52.828;-8.980;2023-11-21T04:47:51;102980.28;;;7.16;89.70
57412;BME280;43247;52.828;-8.980;2023-11-21T04:48:51;102981.95;;;7.17;89.64
57412;BME280;43247;52.828;-8.980;2023-11-21T04:49:51;102984.07;;;7.16;89.74
57412;BME280;43247;52.828;-8.980;2023-11-21T04:50:51;102984.48;;;7.17;89.63
57412;BME280;43247;52.828;-8.980;2023-11-21T04:51:51;102986.08;;;7.15;89.82
57412;BME280;43247;52.828;-8.980;2023-11-21T04:52:52;102986.56;;;7.17;89.69
57412;BME280;43247;52.828;-8.980;2023-11-21T04:53:52;102986.75;;;7.16;89.78
57412;BME280;43247;52.828;-8.980;2023-11-21T04:54:52;102988.06;;;7.16;89.89
57412;BME280;43247;52.828;-8.980;2023-11-21T04:55:52;102991.95;;;7.18;89.84
57412;BME280;43247;52.828;-8.980;2023-11-21T04:56:52;102992.90;;;7.16;89.89
57412;BME280;43247;52.828;-8.980;2023-11-21T04:57:52;102993.91;;;7.16;90.15
57412;BME280;43247;52.828;-8.980;2023-11-21T04:58:54;102997.62;;;7.17;89.95
57412;BME280;43247;52.828;-8.980;2023-11-21T04:59:53;102998.62;;;7.17;90.13
57412;BME280;43247;52.828;-8.980;2023-11-21T05:00:53;103003.32;;;7.17;90.21
57412;BME280;43247;52.828;-8.980;2023-11-21T05:01:53;103002.92;;;7.16;90.22
57412;BME280;43247;52.828;-8.980;2023-11-21T05:02:53;103005.29;;;7.15;90.28
57412;BME280;43247;52.828;-8.980;2023-11-21T05:03:53;103006.59;;;7.16;90.28
57412;BME280;43247;52.828;-8.980;2023-11-21T05:04:54;103007.14;;;7.14;90.35
57412;BME280;43247;52.828;-8.980;2023-11-21T05:05:54;103010.10;;;7.15;90.45
57412;BME280;43247;52.828;-8.980;2023-11-21T05:06:55;103015.02;;;7.16;90.44
57412;BME280;43247;52.828;-8.980;2023-11-21T05:07:54;103015.28;;;7.17;90.43
57412;BME280;43247;52.828;-8.980;2023-11-21T05:08:54;103018.07;;;7.17;90.52
57412;BME280;43247;52.828;-8.980;2023-11-21T05:09:54;103020.23;;;7.17;90.58
57412;BME280;43247;52.828;-8.980;2023-11-21T05:10:55;103020.95;;;7.17;90.56
57412;BME280;43247;52.828;-8.980;2023-11-21T05:11:55;103021.96;;;7.17;90.66
57412;BME280;43247;52.828;-8.980;2023-11-21T05:12:55;103021.79;;;7.17;90.66
57412;BME280;43247;52.828;-8.980;2023-11-21T05:13:55;103023.96;;;7.16;90.77
57412;BME280;43247;52.828;-8.980;2023-11-21T05:14:55;103025.93;;;7.16;90.86
57412;BME280;43247;52.828;-8.980;2023-11-21T05:15:56;103024.42;;;7.16;90.84